Time;durP1;ratioP1;P1;durP2;ratioP2;P2;SDS_P1;SDS_P2;PMS_P1;PMS_P2;Temp;Humidity;BMP_temperature;BMP_pressure;BME280_temperature;BME280_humidity;BME280_pressure;Samples;Min_cycle;Max_cycle;Signal;HPM_P1;HPM_P2
2021/12/07 13:33:57;;;;;;;28.77;18.98;;;;;;;19.15;38.30;98775.81;5169284;27;20382;-60
2021/12/07 13:36:47;;;;;;;35.28;25.75;;;;;;;19.75;37.14;98769.28;5148028;27;20077;-58
2021/12/07 13:39:12;;;;;;;23.38;17.25;;;;;;;20.29;35.83;98759.41;5147027;27;20043;-62
2021/12/07 13:41:54;;;;;;;23.65;17.45;;;;;;;20.66;35.33;98753.69;5152798;27;20091;-57
2021/12/07 13:44:20;;;;;;;19.30;15.40;;;;;;;20.91;34.77;98753.00;5150032;27;20130;-58
2021/12/07 13:46:46;;;;;;;38.78;28.73;;;;;;;21.03;34.50;98741.53;5146310;27;20053;-58
2021/12/07 13:49:13;;;;;;;29.73;23.83;;;;;;;21.12;34.05;98736.38;5152914;27;20054;-58
2021/12/07 13:51:40;;;;;;;18.45;14.27;;;;;;;21.14;33.76;98731.22;5150682;27;20070;-58
2021/12/07 13:54:07;;;;;;;14.15;10.27;;;;;;;21.14;33.78;98722.88;5149999;27;20046;-58
2021/12/07 13:56:38;;;;;;;10.50;7.50;;;;;;;21.13;33.66;98694.25;5150972;27;20038;-58
2021/12/07 13:59:09;;;;;;;14.98;8.30;;;;;;;21.13;33.42;98710.16;5151322;27;20047;-58
2021/12/07 14:01:37;;;;;;;11.05;8.77;;;;;;;21.14;33.37;98703.41;5127113;27;20043;-58
2021/12/07 14:04:04;;;;;;;9.07;6.68;;;;;;;21.16;33.07;98689.91;5145489;27;20399;-64
2021/12/07 14:06:30;;;;;;;8.00;5.75;;;;;;;21.16;33.45;98681.56;5146552;27;20993;-61
2021/12/07 14:09:08;;;;;;;7.03;5.50;;;;;;;21.12;33.05;98666.84;5149584;27;20053;-62
2021/12/07 14:11:34;;;;;;;6.03;4.70;;;;;;;21.21;33.40;98656.13;5146279;27;20039;-64
2021/12/07 14:14:00;;;;;;;7.28;4.93;;;;;;;21.27;33.50;98656.53;5144437;27;20042;-60
2021/12/07 14:16:27;;;;;;;8.93;4.57;;;;;;;21.30;33.40;98669.72;5146329;27;20142;-58
2021/12/07 14:18:53;;;;;;;6.68;5.00;;;;;;;21.33;33.37;98664.13;5147374;27;20046;-57
2021/12/07 14:21:19;;;;;;;10.05;4.88;;;;;;;21.34;33.17;98654.59;5144334;27;20559;-58
2021/12/07 14:23:48;;;;;;;12.55;8.38;;;;;;;21.35;33.32;98631.16;5149567;27;20043;-59
2021/12/07 14:26:13;;;;;;;10.15;7.10;;;;;;;21.35;33.34;98628.34;5146574;27;20053;-57
2021/12/07 14:28:53;;;;;;;10.02;6.70;;;;;;;21.17;33.55;98622.78;5139675;27;20039;-57
2021/12/07 14:31:26;;;;;;;13.57;6.05;;;;;;;21.10;33.77;98624.75;5144600;27;20046;-60
2021/12/07 14:34:02;;;;;;;9.98;5.90;;;;;;;21.16;34.21;98614.84;5144099;27;20073;-59
2021/12/07 14:36:33;;;;;;;9.00;4.70;;;;;;;21.20;34.50;98621.19;5149500;27;20561;-59
2021/12/07 14:39:11;;;;;;;8.10;4.00;;;;;;;21.22;34.56;98613.25;5144535;27;20459;-58
2021/12/07 14:41:48;;;;;;;17.30;5.60;;;;;;;21.29;34.93;98613.28;5121755;27;20581;-57
2021/12/07 14:44:22;;;;;;;12.48;5.57;;;;;;;21.32;34.59;98614.47;5138901;27;20042;-58
2021/12/07 14:46:49;;;;;;;11.65;5.03;;;;;;;21.36;34.62;98616.06;5133562;27;20122;-60
2021/12/07 14:49:15;;;;;;;11.13;4.25;;;;;;;21.38;34.65;98619.25;5132613;27;20039;-58
2021/12/07 14:51:43;;;;;;;16.48;4.93;;;;;;;21.45;34.80;98624.00;5121186;27;20043;-59
2021/12/07 14:54:09;;;;;;;12.13;3.95;;;;;;;21.42;35.02;98625.56;5128324;27;20110;-58
2021/12/07 14:56:37;;;;;;;9.85;3.88;;;;;;;21.42;35.09;98628.34;5128953;27;20047;-59
2021/12/07 14:59:09;;;;;;;7.25;4.10;;;;;;;21.40;35.17;98625.19;5136649;27;20051;-64
2021/12/07 15:01:38;;;;;;;10.30;3.72;;;;;;;21.46;35.26;98627.59;5127970;27;20043;-69
2021/12/07 15:04:07;;;;;;;8.38;3.50;;;;;;;21.48;35.37;98625.19;5130921;27;20039;-65
2021/12/07 15:06:35;;;;;;;9.43;3.60;;;;;;;21.45;35.54;98628.78;5137101;27;20533;-67
2021/12/07 15:09:04;;;;;;;7.20;3.35;;;;;;;21.49;35.43;98643.47;5134368;27;20506;-67
2021/12/07 15:11:33;;;;;;;9.98;3.35;;;;;;;21.48;35.27;98651.03;5135618;27;20459;-65
2021/12/07 15:14:03;;;;;;;6.50;3.10;;;;;;;21.48;35.30;98655.78;5129809;27;20114;-64
2021/12/07 15:16:29;;;;;;;8.77;3.20;;;;;;;21.46;35.26;98636.72;5126293;27;20047;-67
2021/12/07 15:18:57;;;;;;;7.45;2.90;;;;;;;21.42;35.12;98625.56;5131277;27;20042;-66
2021/12/07 15:21:27;;;;;;;7.90;2.70;;;;;;;21.40;35.17;98619.63;5134802;27;20041;-67
2021/12/07 15:23:56;;;;;;;8.93;2.50;;;;;;;21.39;35.23;98622.81;5141325;27;20045;-66
2021/12/07 15:26:25;;;;;;;5.25;2.47;;;;;;;21.35;35.39;98625.56;5135336;27;20042;-63
2021/12/07 15:28:56;;;;;;;9.43;2.80;;;;;;;21.35;35.30;98633.94;5135486;27;20034;-64
2021/12/07 15:31:23;;;;;;;9.43;2.67;;;;;;;21.36;35.17;98637.50;5132360;27;20141;-66
2021/12/07 15:33:50;;;;;;;13.75;3.03;;;;;;;21.33;35.27;98639.09;5135342;27;20521;-71
2021/12/07 15:36:22;;;;;;;13.65;2.63;;;;;;;21.32;35.22;98648.63;5137025;27;20078;-63
2021/12/07 15:38:48;;;;;;;4.68;2.40;;;;;;;21.31;35.37;98632.34;5136457;27;20515;-65
2021/12/07 15:41:14;;;;;;;10.77;2.45;;;;;;;21.30;35.37;98633.56;5133692;27;20043;-65
2021/12/07 15:43:44;;;;;;;11.27;2.38;;;;;;;21.27;35.75;98618.41;5138007;27;20042;-65
2021/12/07 15:46:16;;;;;;;8.00;2.50;;;;;;;21.22;35.72;98635.50;5140355;27;21604;-65
2021/12/07 15:48:43;;;;;;;6.60;2.25;;;;;;;21.21;35.43;98619.97;5135974;27;20078;-65
2021/12/07 15:51:09;;;;;;;4.28;2.10;;;;;;;21.18;35.36;98618.00;5131361;27;20049;-68
2021/12/07 15:53:34;;;;;;;6.53;2.20;;;;;;;21.20;35.52;98615.63;5134852;27;20046;-69
2021/12/07 15:56:00;;;;;;;7.28;2.90;;;;;;;21.19;35.46;98611.25;5136486;27;20047;-66
2021/12/07 15:58:26;;;;;;;4.95;2.40;;;;;;;21.21;35.69;98611.63;5112709;27;20050;-67
2021/12/07 16:00:57;;;;;;;5.45;2.28;;;;;;;21.18;35.25;98595.75;5131433;27;20026;-65
2021/12/07 16:03:29;;;;;;;4.22;2.03;;;;;;;21.20;35.55;98587.81;5132256;27;20103;-65
2021/12/07 16:06:01;;;;;;;3.75;2.17;;;;;;;21.21;35.44;98594.94;5110190;27;20474;-63
2021/12/07 16:08:28;;;;;;;4.03;2.20;;;;;;;21.23;35.43;98580.66;5108893;27;20035;-66
2021/12/07 16:10:56;;;;;;;3.67;2.22;;;;;;;21.22;35.60;98579.06;5137470;27;20046;-66
2021/12/07 16:13:27;;;;;;;5.28;2.60;;;;;;;21.21;35.30;98577.47;5133614;27;20050;-64
2021/12/07 16:15:57;;;;;;;3.75;2.35;;;;;;;21.19;35.46;98577.09;5132811;27;20039;-63
2021/12/07 16:18:25;;;;;;;3.70;1.95;;;;;;;21.19;35.33;98574.31;5134000;27;20064;-64
2021/12/07 16:20:53;;;;;;;3.90;2.20;;;;;;;21.16;35.77;98553.66;5129863;27;20054;-61
2021/12/07 16:23:19;;;;;;;4.57;2.20;;;;;;;21.12;35.52;98553.66;5130677;27;20510;-62
2021/12/07 16:25:47;;;;;;;4.78;2.35;;;;;;;21.11;35.66;98562.38;5132555;27;20710;-63
2021/12/07 16:28:13;;;;;;;3.85;2.42;;;;;;;21.09;35.48;98534.19;5125804;27;20039;-62
2021/12/07 16:30:38;;;;;;;3.30;2.20;;;;;;;21.06;35.52;98518.28;5131538;27;20049;-63
2021/12/07 16:33:05;;;;;;;4.15;2.38;;;;;;;21.04;35.57;98529.81;5131455;27;20418;-63
2021/12/07 16:35:31;;;;;;;4.30;2.20;;;;;;;21.04;35.45;98518.69;5104267;27;20050;-66
2021/12/07 16:37:57;;;;;;;4.03;2.28;;;;;;;21.02;35.40;98498.84;5134281;27;20042;-66
2021/12/07 16:40:23;;;;;;;5.15;2.40;;;;;;;21.05;35.75;98500.03;5136644;27;20185;-64
2021/12/07 16:42:51;;;;;;;4.95;1.80;;;;;;;21.07;35.88;98480.94;5136606;27;20039;-64
2021/12/07 16:45:19;;;;;;;4.85;2.13;;;;;;;21.08;35.86;98465.88;5109991;27;20383;-65
2021/12/07 16:47:45;;;;;;;3.10;1.88;;;;;;;21.10;35.84;98477.38;5119197;27;20050;-66
2021/12/07 16:50:12;;;;;;;6.50;2.38;;;;;;;21.12;35.84;98461.88;5133124;27;20661;-62
2021/12/07 16:52:39;;;;;;;4.97;2.20;;;;;;;21.14;36.15;98447.56;5133850;27;20083;-62
2021/12/07 16:55:08;;;;;;;3.35;2.10;;;;;;;21.13;36.26;98454.34;5133919;27;20042;-67
2021/12/07 16:57:34;;;;;;;5.72;1.95;;;;;;;21.16;36.18;98459.09;5134182;27;20035;-66
2021/12/07 17:00:00;;;;;;;3.00;1.80;;;;;;;21.25;36.09;98451.13;5143723;27;20035;-67
2021/12/07 17:02:28;;;;;;;2.88;1.63;;;;;;;21.35;36.29;98442.00;5141333;27;20410;-67
2021/12/07 17:04:54;;;;;;;6.30;1.77;;;;;;;21.38;36.37;98438.41;5142523;27;20042;-62
2021/12/07 17:07:19;;;;;;;6.13;1.95;;;;;;;21.38;36.48;98426.50;5145374;27;20129;-58
2021/12/07 17:09:44;;;;;;;3.00;1.63;;;;;;;21.39;36.55;98414.97;5146175;27;20443;-60
2021/12/07 17:12:10;;;;;;;9.57;1.65;;;;;;;21.37;36.33;98417.38;5138271;27;20734;-59
2021/12/07 17:14:36;;;;;;;4.80;1.70;;;;;;;21.35;36.26;98413.38;5143697;27;20480;-58
2021/12/07 17:17:02;;;;;;;3.10;1.63;;;;;;;21.32;36.23;98405.84;5120369;27;20042;-61
2021/12/07 17:19:28;;;;;;;5.22;1.77;;;;;;;21.29;36.43;98410.25;5148527;27;20103;-60
2021/12/07 17:21:53;;;;;;;2.92;1.77;;;;;;;21.31;36.71;98396.72;5149150;27;20039;-62
2021/12/07 17:24:20;;;;;;;3.58;1.60;;;;;;;21.36;37.24;98390.75;5126231;27;20149;-60
2021/12/07 17:26:50;;;;;;;5.32;1.70;;;;;;;21.42;37.29;98380.75;5121443;27;20043;-63
2021/12/07 17:29:16;;;;;;;5.90;1.90;;;;;;;21.54;37.77;98381.53;5148957;27;20133;-58
2021/12/07 17:31:42;;;;;;;3.38;1.73;;;;;;;21.58;37.51;98368.41;5147132;27;20046;-62
2021/12/07 17:34:08;;;;;;;8.50;2.08;;;;;;;21.63;37.61;98374.31;5148738;27;20054;-60
2021/12/07 17:36:34;;;;;;;4.35;2.10;;;;;;;21.66;37.26;98375.50;5148578;27;20099;-63
2021/12/07 17:39:05;;;;;;;3.13;1.83;;;;;;;21.66;37.14;98369.94;5148903;27;20066;-62
2021/12/07 17:41:31;;;;;;;3.80;1.95;;;;;;;21.66;37.04;98354.03;5148641;27;20491;-61
2021/12/07 17:43:56;;;;;;;7.07;1.90;;;;;;;21.65;37.15;98355.22;5143174;27;20051;-58
2021/12/07 17:46:22;;;;;;;4.32;2.40;;;;;;;21.62;37.25;98347.69;5148093;27;20506;-57
2021/12/07 17:48:48;;;;;;;3.88;2.20;;;;;;;21.60;37.27;98327.81;5137009;27;20447;-57
2021/12/07 17:51:14;;;;;;;8.38;2.85;;;;;;;21.55;36.88;98324.66;5144165;27;20620;-58
2021/12/07 17:53:39;;;;;;;4.72;2.28;;;;;;;21.52;36.74;98322.72;5142652;27;20135;-58
2021/12/07 17:56:05;;;;;;;3.80;2.00;;;;;;;21.53;36.62;98316.75;5146565;27;20053;-58
2021/12/07 17:58:31;;;;;;;3.92;2.22;;;;;;;21.54;36.60;98328.66;5146609;27;20522;-58
2021/12/07 18:00:56;;;;;;;4.10;2.30;;;;;;;21.53;36.32;98310.38;5144847;27;20039;-58
2021/12/07 18:03:24;;;;;;;3.80;2.28;;;;;;;21.55;36.43;98319.09;5147226;27;20499;-58
2021/12/07 18:05:51;;;;;;;4.63;2.20;;;;;;;21.52;36.33;98311.59;5144266;27;20050;-59
2021/12/07 18:08:18;;;;;;;5.72;2.13;;;;;;;21.49;36.41;98296.47;5147716;27;20041;-59
2021/12/07 18:10:44;;;;;;;3.85;2.40;;;;;;;21.50;35.96;98300.06;5146490;27;20058;-59
2021/12/07 18:13:10;;;;;;;5.10;2.38;;;;;;;21.47;35.96;98300.88;5145699;27;20050;-58
2021/12/07 18:15:36;;;;;;;4.60;2.45;;;;;;;21.42;35.92;98293.75;5146132;27;20053;-58
2021/12/07 18:18:04;;;;;;;4.50;1.92;;;;;;;21.41;35.82;98311.63;5147820;27;20051;-58
2021/12/07 18:20:34;;;;;;;10.02;2.58;;;;;;;21.38;35.79;98296.56;5148301;27;20042;-59
2021/12/07 18:22:59;;;;;;;7.15;1.95;;;;;;;21.37;35.96;98303.31;5150685;27;20035;-57
2021/12/07 18:25:25;;;;;;;5.40;2.28;;;;;;;21.35;35.65;98311.25;5150428;27;20053;-58
2021/12/07 18:27:51;;;;;;;3.45;2.28;;;;;;;21.36;35.51;98300.91;5150997;27;20038;-58
2021/12/07 18:30:20;;;;;;;3.75;2.13;;;;;;;21.32;35.79;98303.72;5150214;27;20049;-57
2021/12/07 18:32:48;;;;;;;3.42;1.92;;;;;;;21.31;35.87;98304.94;5152463;27;20565;-57
2021/12/07 18:35:15;;;;;;;4.20;2.40;;;;;;;21.32;35.75;98306.50;5151540;27;20046;-57
2021/12/07 18:37:41;;;;;;;3.63;2.00;;;;;;;21.32;35.47;98302.94;5149877;27;20039;-57
2021/12/07 18:40:10;;;;;;;3.47;2.17;;;;;;;21.33;35.42;98315.66;5152049;27;20035;-57
2021/12/07 18:42:36;;;;;;;3.45;1.92;;;;;;;21.34;35.31;98301.31;5150533;27;20490;-57
2021/12/07 18:45:07;;;;;;;3.45;2.00;;;;;;;21.37;35.51;98297.75;5150126;27;20042;-59
2021/12/07 18:47:33;;;;;;;5.05;2.78;;;;;;;21.41;35.56;98308.84;5149005;27;20050;-59
2021/12/07 18:49:59;;;;;;;7.45;3.90;;;;;;;21.42;35.33;98304.88;5151727;27;20039;-56
2021/12/07 18:52:24;;;;;;;6.13;3.30;;;;;;;21.37;35.32;98294.19;5145475;27;20087;-57
2021/12/07 18:54:50;;;;;;;6.07;3.63;;;;;;;21.36;35.45;98287.84;5150255;27;20125;-57
2021/12/07 18:57:17;;;;;;;5.72;3.10;;;;;;;21.34;35.01;98295.75;5151213;27;20038;-57
2021/12/07 18:59:43;;;;;;;5.38;3.03;;;;;;;21.33;35.31;98271.16;5152259;27;20117;-58
2021/12/07 19:02:09;;;;;;;6.68;3.22;;;;;;;21.32;35.29;98270.34;5148141;27;20175;-57
2021/12/07 19:04:35;;;;;;;6.57;3.53;;;;;;;21.34;35.31;98270.72;5150412;27;20034;-58
2021/12/07 19:07:00;;;;;;;5.50;3.00;;;;;;;21.33;35.16;98263.59;5125132;27;20038;-57
2021/12/07 19:09:27;;;;;;;6.15;3.20;;;;;;;21.32;35.27;98258.44;5148917;27;20450;-57
2021/12/07 19:11:52;;;;;;;5.03;2.90;;;;;;;21.33;35.03;98263.59;5149859;27;20043;-58
2021/12/07 19:14:18;;;;;;;6.10;2.78;;;;;;;21.37;35.27;98255.25;5147682;27;20078;-58
2021/12/07 19:16:44;;;;;;;8.05;3.03;;;;;;;21.38;34.96;98252.03;5147509;27;20058;-63
2021/12/07 19:19:12;;;;;;;9.63;3.28;;;;;;;21.43;34.95;98264.72;5145740;27;20111;-58
2021/12/07 19:21:38;;;;;;;6.80;3.45;;;;;;;21.45;34.88;98231.75;5146818;27;20038;-58
2021/12/07 19:24:04;;;;;;;9.00;3.40;;;;;;;21.43;34.98;98226.59;5150768;27;20051;-58
2021/12/07 19:26:30;;;;;;;6.03;3.05;;;;;;;21.40;35.06;98232.16;5150045;27;20410;-58
2021/12/07 19:28:55;;;;;;;5.45;3.20;;;;;;;21.36;34.63;98239.72;5151507;27;20672;-59
2021/12/07 19:31:22;;;;;;;5.32;2.90;;;;;;;21.32;34.91;98231.41;5150224;27;20045;-59
2021/12/07 19:33:51;;;;;;;4.90;2.95;;;;;;;21.31;34.71;98226.28;5150714;27;20058;-58
2021/12/07 19:36:19;;;;;;;4.13;2.75;;;;;;;21.29;34.51;98223.06;5151410;27;20045;-58
2021/12/07 19:38:44;;;;;;;4.50;3.00;;;;;;;21.27;34.72;98200.44;5147710;27;20510;-58
2021/12/07 19:41:10;;;;;;;4.78;3.10;;;;;;;21.25;34.74;98213.94;5150855;27;20074;-58
2021/12/07 19:43:36;;;;;;;4.65;2.95;;;;;;;21.23;34.56;98206.03;5151169;27;20395;-58
2021/12/07 19:46:02;;;;;;;6.80;2.90;;;;;;;21.26;34.61;98204.41;5148093;27;20037;-58
2021/12/07 19:48:28;;;;;;;4.30;2.70;;;;;;;21.24;34.70;98204.81;5150014;27;20085;-57
2021/12/07 19:51:06;;;;;;;5.78;3.17;;;;;;;21.24;34.54;98202.03;5150581;27;20094;-59
2021/12/07 19:53:36;;;;;;;7.07;3.00;;;;;;;21.25;34.50;98198.06;5147963;27;20038;-59
2021/12/07 19:56:11;;;;;;;4.78;2.90;;;;;;;21.26;34.53;98207.19;5147083;27;20063;-58
2021/12/07 19:58:38;;;;;;;4.18;2.85;;;;;;;21.23;34.71;98196.88;5149682;27;20041;-58
2021/12/07 20:01:06;;;;;;;4.28;2.70;;;;;;;21.17;34.79;98216.00;5147560;27;20049;-59
2021/12/07 20:03:33;;;;;;;6.45;3.30;;;;;;;21.12;34.92;98202.50;5148990;27;20043;-59
2021/12/07 20:05:59;;;;;;;5.15;2.88;;;;;;;21.07;34.92;98206.50;5151576;27;20039;-58
2021/12/07 20:08:25;;;;;;;4.72;2.85;;;;;;;21.04;34.92;98212.09;5151306;27;20047;-59
2021/12/07 20:10:52;;;;;;;4.32;2.83;;;;;;;21.02;34.84;98220.84;5151535;27;20043;-58
2021/12/07 20:13:19;;;;;;;5.85;3.10;;;;;;;21.00;34.83;98226.00;5151455;27;20047;-57
2021/12/07 20:15:51;;;;;;;4.15;2.80;;;;;;;20.94;35.00;98202.63;5151394;27;20521;-57
2021/12/07 20:18:17;;;;;;;5.00;3.22;;;;;;;20.95;34.98;98225.63;5151226;27;20118;-58
2021/12/07 20:20:45;;;;;;;4.30;2.78;;;;;;;20.92;34.93;98209.75;5151374;27;20180;-59
2021/12/07 20:23:11;;;;;;;4.60;2.97;;;;;;;20.87;35.02;98216.53;5148808;27;20050;-59
2021/12/07 20:25:39;;;;;;;4.13;2.50;;;;;;;20.84;35.14;98231.22;5151120;27;20519;-59
2021/12/07 20:28:05;;;;;;;4.47;2.78;;;;;;;20.85;35.14;98239.16;5151092;27;20074;-59
2021/12/07 20:30:30;;;;;;;5.03;2.58;;;;;;;20.81;35.11;98227.28;5151018;27;20062;-59
2021/12/07 20:32:55;;;;;;;4.38;3.08;;;;;;;20.80;35.10;98208.25;5150895;27;20095;-60
2021/12/07 20:35:21;;;;;;;4.20;2.90;;;;;;;20.80;35.14;98222.13;5150895;27;20038;-57
2021/12/07 20:37:47;;;;;;;3.97;2.47;;;;;;;20.76;35.29;98224.91;5150916;27;20284;-57
2021/12/07 20:40:16;;;;;;;4.50;2.80;;;;;;;20.75;35.29;98215.00;5151134;27;20046;-57
2021/12/07 20:42:42;;;;;;;4.18;2.70;;;;;;;20.74;35.29;98209.84;5150337;27;20038;-57
2021/12/07 20:45:08;;;;;;;6.13;3.25;;;;;;;20.74;35.25;98227.31;5150993;27;20037;-57
2021/12/07 20:47:34;;;;;;;4.03;2.78;;;;;;;20.72;35.45;98206.69;5150969;27;20050;-57
2021/12/07 20:50:00;;;;;;;4.55;2.88;;;;;;;20.72;35.22;98217.81;5151060;27;20046;-57
2021/12/07 20:52:25;;;;;;;5.82;2.60;;;;;;;20.72;35.48;98190.81;5150830;27;20054;-57
2021/12/07 20:54:52;;;;;;;5.47;2.80;;;;;;;20.73;35.46;98202.72;5150856;27;20042;-56
2021/12/07 20:57:18;;;;;;;4.75;2.60;;;;;;;20.70;35.33;98187.63;5150901;27;20050;-57
2021/12/07 20:59:44;;;;;;;4.63;3.03;;;;;;;20.71;35.32;98188.41;5150795;27;20035;-57
2021/12/07 21:02:10;;;;;;;4.40;3.03;;;;;;;20.69;35.41;98188.81;5150741;27;20037;-57
2021/12/07 21:04:36;;;;;;;4.75;3.10;;;;;;;20.70;35.51;98186.84;5150730;27;20038;-59
2021/12/07 21:07:01;;;;;;;4.85;2.80;;;;;;;20.69;35.33;98185.25;5132128;27;20058;-59
2021/12/07 21:09:27;;;;;;;4.78;2.88;;;;;;;20.70;35.44;98203.50;5150493;27;20039;-59
2021/12/07 21:11:52;;;;;;;4.45;2.90;;;;;;;20.71;35.46;98188.41;5150705;27;20406;-59
2021/12/07 21:14:18;;;;;;;4.50;2.75;;;;;;;20.70;35.46;98182.06;5132107;27;20412;-59
2021/12/07 21:16:45;;;;;;;4.20;2.80;;;;;;;20.69;35.43;98208.28;5150601;27;20074;-59
2021/12/07 21:19:11;;;;;;;5.03;3.35;;;;;;;20.69;35.41;98199.94;5150370;27;20033;-58
2021/12/07 21:21:37;;;;;;;4.80;3.00;;;;;;;20.70;35.37;98187.63;5150600;27;20099;-58
2021/12/07 21:24:03;;;;;;;4.30;2.63;;;;;;;20.70;35.47;98198.75;5150611;27;20455;-58
2021/12/07 21:26:28;;;;;;;4.07;2.78;;;;;;;20.70;35.49;98186.84;5150437;27;20039;-58
2021/12/07 21:28:53;;;;;;;4.25;2.80;;;;;;;20.68;35.50;98195.56;5150446;27;20039;-59
2021/12/07 21:31:19;;;;;;;4.78;3.20;;;;;;;20.68;35.49;98189.22;5150201;27;20046;-58
2021/12/07 21:33:45;;;;;;;4.07;2.90;;;;;;;20.70;35.68;98181.28;5122311;27;20393;-58
2021/12/07 21:36:11;;;;;;;4.85;2.90;;;;;;;20.69;35.60;98183.25;5127618;27;20400;-59
2021/12/07 21:38:37;;;;;;;3.35;2.20;;;;;;;20.70;35.90;98184.06;5130454;27;20034;-58
2021/12/07 21:41:03;;;;;;;4.10;3.05;;;;;;;20.70;35.69;98170.94;5131011;27;20503;-57
2021/12/07 21:43:28;;;;;;;3.80;2.60;;;;;;;20.69;35.65;98172.16;5127211;27;20042;-57
2021/12/07 21:45:54;;;;;;;4.85;2.95;;;;;;;20.71;35.82;98166.19;5130853;27;20030;-57
2021/12/07 21:48:20;;;;;;;3.63;2.47;;;;;;;20.70;35.74;98168.16;5129995;27;20112;-59
2021/12/07 21:50:46;;;;;;;3.72;2.28;;;;;;;20.70;35.84;98153.50;5127679;27;20530;-55
2021/12/07 21:53:11;;;;;;;4.25;2.70;;;;;;;20.69;35.85;98154.69;5118161;27;20055;-57
2021/12/07 21:55:39;;;;;;;4.00;2.70;;;;;;;20.69;35.86;98163.03;5123023;28;20043;-56
2021/12/07 21:58:08;;;;;;;4.78;2.72;;;;;;;20.68;35.95;98151.13;5132077;27;20035;-56
2021/12/07 22:00:36;;;;;;;3.60;2.47;;;;;;;20.69;36.03;98171.34;5125782;27;20044;-57
2021/12/07 22:03:03;;;;;;;3.80;2.65;;;;;;;20.68;36.11;98172.56;5132311;27;20493;-57
2021/12/07 22:05:29;;;;;;;4.20;2.80;;;;;;;20.69;36.09;98154.69;5134900;27;20073;-56
2021/12/07 22:07:54;;;;;;;3.83;2.53;;;;;;;20.68;36.18;98151.13;5131521;27;20051;-56
2021/12/07 22:10:21;;;;;;;4.72;2.78;;;;;;;20.69;36.29;98163.03;5132374;27;20111;-57
2021/12/07 22:12:49;;;;;;;4.95;2.50;;;;;;;20.66;36.18;98145.19;5134955;27;20070;-57
2021/12/07 22:15:15;;;;;;;3.83;2.50;;;;;;;20.67;36.37;98141.22;5131532;27;20431;-57
2021/12/07 22:17:42;;;;;;;3.72;2.50;;;;;;;20.68;36.14;98153.13;5132511;27;20110;-56
2021/12/07 22:20:10;;;;;;;3.78;2.45;;;;;;;20.65;36.37;98137.25;5134784;27;20035;-57
2021/12/07 22:22:36;;;;;;;3.58;2.20;;;;;;;20.68;36.40;98145.56;5131806;27;20088;-56
2021/12/07 22:25:03;;;;;;;3.63;2.25;;;;;;;20.68;36.50;98142.00;5136300;27;20441;-56
2021/12/07 22:27:30;;;;;;;3.28;2.25;;;;;;;20.68;36.25;98148.34;5130548;27;20188;-56
2021/12/07 22:29:57;;;;;;;3.90;2.25;;;;;;;20.69;36.49;98141.59;5133537;27;20414;-56
2021/12/07 22:32:23;;;;;;;3.25;2.10;;;;;;;20.67;36.49;98135.66;5105133;28;20576;-56
2021/12/07 22:34:51;;;;;;;4.63;2.40;;;;;;;20.69;36.57;98140.78;5123319;28;20407;-56
2021/12/07 22:37:18;;;;;;;3.53;2.28;;;;;;;20.67;36.48;98118.19;5131101;27;20047;-57
2021/12/07 22:39:44;;;;;;;3.80;2.28;;;;;;;20.68;36.76;98112.22;5131503;27;20039;-57
2021/12/07 22:42:10;;;;;;;3.53;1.80;;;;;;;20.68;36.67;98117.78;5134324;27;20041;-57
2021/12/07 22:44:35;;;;;;;3.33;1.98;;;;;;;20.69;36.57;98091.56;5131053;27;20048;-59
2021/12/07 22:47:01;;;;;;;3.15;1.80;;;;;;;20.71;36.86;98118.94;5132105;27;20405;-59
2021/12/07 22:49:26;;;;;;;2.85;1.60;;;;;;;20.69;36.75;98124.13;5134539;27;20054;-59
2021/12/07 22:51:53;;;;;;;2.33;1.60;;;;;;;20.68;36.74;98094.75;5111875;27;20108;-59
2021/12/07 22:54:21;;;;;;;2.13;1.33;;;;;;;20.68;36.80;98103.88;5132940;27;20031;-59
2021/12/07 22:56:47;;;;;;;2.47;1.33;;;;;;;20.70;36.54;98103.47;5134958;27;20031;-59
2021/12/07 22:59:12;;;;;;;2.40;1.40;;;;;;;20.69;36.97;98097.13;5130282;27;20035;-59
2021/12/07 23:01:38;;;;;;;2.40;1.30;;;;;;;20.70;36.90;98087.59;5132815;27;20042;-59
2021/12/07 23:04:04;;;;;;;1.77;1.08;;;;;;;20.71;36.79;98105.84;5133071;27;20036;-59
2021/12/07 23:06:29;;;;;;;2.42;1.20;;;;;;;20.71;37.06;98082.81;5129380;27;20373;-58
2021/12/07 23:08:55;;;;;;;2.60;1.20;;;;;;;20.70;37.01;98076.47;5133665;27;20455;-58
2021/12/07 23:11:20;;;;;;;1.92;1.05;;;;;;;20.70;36.86;98082.03;5131936;27;20040;-58
2021/12/07 23:13:49;;;;;;;2.40;1.10;;;;;;;20.72;37.14;98081.66;5130363;27;20046;-58
2021/12/07 23:16:16;;;;;;;1.15;0.75;;;;;;;20.72;36.97;98057.44;5124710;27;20040;-58
2021/12/07 23:18:42;;;;;;;2.03;1.10;;;;;;;20.73;37.02;98045.13;5131735;27;20494;-58
2021/12/07 23:21:12;;;;;;;2.75;1.00;;;;;;;20.72;37.13;98043.53;5133793;27;20074;-58
2021/12/07 23:23:39;;;;;;;1.55;0.80;;;;;;;20.72;36.92;98040.75;5128093;27;20123;-58
2021/12/07 23:26:06;;;;;;;3.40;0.75;;;;;;;20.74;36.94;98057.03;5130843;27;20027;-58
2021/12/07 23:28:33;;;;;;;1.10;0.70;;;;;;;20.73;37.08;98047.91;5133684;27;20057;-58
2021/12/07 23:31:03;;;;;;;2.03;0.70;;;;;;;20.73;37.05;98034.00;5128309;27;20524;-58
2021/12/07 23:33:31;;;;;;;1.02;0.70;;;;;;;20.74;37.14;98030.03;5133711;27;20057;-59
2021/12/07 23:35:59;;;;;;;1.20;0.70;;;;;;;20.76;37.29;98040.72;5126701;27;20054;-59
2021/12/07 23:38:25;;;;;;;1.50;0.80;;;;;;;20.74;37.16;98040.34;5124481;28;20031;-57
2021/12/07 23:40:51;;;;;;;0.85;0.60;;;;;;;20.73;37.13;98022.88;5127241;27;20131;-57
2021/12/07 23:43:18;;;;;;;1.00;0.68;;;;;;;20.73;36.98;98024.88;5125667;28;20415;-57
2021/12/07 23:45:45;;;;;;;1.50;0.70;;;;;;;20.73;37.24;98025.66;5120691;28;20051;-56
2021/12/07 23:48:11;;;;;;;1.08;0.70;;;;;;;20.73;37.17;98011.00;5133636;27;20571;-57
2021/12/07 23:50:37;;;;;;;1.15;0.70;;;;;;;20.72;37.30;98012.97;5130426;27;20036;-56
2021/12/07 23:53:04;;;;;;;1.00;0.60;;;;;;;20.74;37.12;98001.44;5130837;27;20482;-56
2021/12/07 23:55:29;;;;;;;1.20;0.63;;;;;;;20.73;37.28;97991.53;5133296;27;20422;-58
2021/12/07 23:57:55;;;;;;;1.33;0.70;;;;;;;20.72;37.04;98001.06;5129512;27;20047;-58
